sensor_id;sensor_type;location;lat;lon;timestamp;pressure;altitude;pressure_sealevel;temperature;humidity
16777;BME280;8505;49.456;8.164;2023-04-28T00:00:52;99562.31;;;11.16;74.85
16777;BME280;8505;49.456;8.164;2023-04-28T00:03:20;99562.53;;;10.92;76.07
16777;BME280;8505;49.456;8.164;2023-04-28T00:05:48;99565.28;;;10.76;78.23
16777;BME280;8505;49.456;8.164;2023-04-28T00:08:17;99567.81;;;10.69;80.37
16777;BME280;8505;49.456;8.164;2023-04-28T00:10:47;99562.75;;;10.60;80.96
16777;BME280;8505;49.456;8.164;2023-04-28T00:13:14;99556.75;;;10.43;81.90
16777;BME280;8505;49.456;8.164;2023-04-28T00:15:42;99555.38;;;10.24;83.05
16777;BME280;8505;49.456;8.164;2023-04-28T00:18:10;99545.19;;;10.05;84.78
16777;BME280;8505;49.456;8.164;2023-04-28T00:20:38;99545.13;;;10.13;85.23
16777;BME280;8505;49.456;8.164;2023-04-28T00:23:05;99524.59;;;10.15;85.87
16777;BME280;8505;49.456;8.164;2023-04-28T00:25:34;99518.00;;;10.19;85.69
16777;BME280;8505;49.456;8.164;2023-04-28T00:28:02;99514.84;;;10.24;86.21
16777;BME280;8505;49.456;8.164;2023-04-28T00:30:30;99505.59;;;10.20;86.55
16777;BME280;8505;49.456;8.164;2023-04-28T00:32:57;99508.44;;;10.10;86.85
16777;BME280;8505;49.456;8.164;2023-04-28T00:35:25;99516.00;;;10.13;87.48
16777;BME280;8505;49.456;8.164;2023-04-28T00:37:53;99511.66;;;10.28;87.63
16777;BME280;8505;49.456;8.164;2023-04-28T00:40:20;99510.06;;;10.19;88.34
16777;BME280;8505;49.456;8.164;2023-04-28T00:42:49;99503.31;;;10.17;88.51
16777;BME280;8505;49.456;8.164;2023-04-28T00:45:17;99502.13;;;10.19;88.75
16777;BME280;8505;49.456;8.164;2023-04-28T00:47:45;99499.47;;;10.19;89.03
16777;BME280;8505;49.456;8.164;2023-04-28T00:50:12;99492.03;;;10.23;88.61
16777;BME280;8505;49.456;8.164;2023-04-28T00:52:42;99488.72;;;10.21;89.24
16777;BME280;8505;49.456;8.164;2023-04-28T00:55:09;99494.38;;;10.18;89.45
16777;BME280;8505;49.456;8.164;2023-04-28T00:57:38;99484.09;;;10.14;89.88
16777;BME280;8505;49.456;8.164;2023-04-28T01:00:08;99481.44;;;10.14;90.29
16777;BME280;8505;49.456;8.164;2023-04-28T01:02:36;99477.69;;;10.09;90.72
16777;BME280;8505;49.456;8.164;2023-04-28T01:05:05;99469.88;;;10.15;90.70
16777;BME280;8505;49.456;8.164;2023-04-28T01:07:33;99467.72;;;10.19;90.95
16777;BME280;8505;49.456;8.164;2023-04-28T01:10:01;99473.00;;;10.19;90.69
16777;BME280;8505;49.456;8.164;2023-04-28T01:12:29;99467.91;;;10.09;91.60
16777;BME280;8505;49.456;8.164;2023-04-28T01:14:57;99467.91;;;10.09;91.91
16777;BME280;8505;49.456;8.164;2023-04-28T01:17:27;99475.31;;;10.14;92.02
16777;BME280;8505;49.456;8.164;2023-04-28T01:19:55;99472.50;;;10.15;91.81
16777;BME280;8505;49.456;8.164;2023-04-28T01:22:22;99467.09;;;10.17;91.77
16777;BME280;8505;49.456;8.164;2023-04-28T01:24:51;99464.91;;;10.21;91.93
16777;BME280;8505;49.456;8.164;2023-04-28T01:27:19;99465.72;;;10.21;91.80
16777;BME280;8505;49.456;8.164;2023-04-28T01:29:48;99462.75;;;10.16;92.38
16777;BME280;8505;49.456;8.164;2023-04-28T01:32:16;99460.09;;;10.16;92.12
16777;BME280;8505;49.456;8.164;2023-04-28T01:34:44;99457.63;;;10.14;92.71
16777;BME280;8505;49.456;8.164;2023-04-28T01:37:13;99465.09;;;10.11;92.99
16777;BME280;8505;49.456;8.164;2023-04-28T01:39:41;99456.50;;;10.17;92.82
16777;BME280;8505;49.456;8.164;2023-04-28T01:42:10;99462.47;;;10.11;93.35
16777;BME280;8505;49.456;8.164;2023-04-28T01:44:37;99469.41;;;10.12;93.42
16777;BME280;8505;49.456;8.164;2023-04-28T01:47:05;99464.56;;;10.15;93.59
16777;BME280;8505;49.456;8.164;2023-04-28T01:49:33;99472.69;;;10.14;93.99
16777;BME280;8505;49.456;8.164;2023-04-28T01:52:00;99476.31;;;10.13;93.95
16777;BME280;8505;49.456;8.164;2023-04-28T01:54:28;99468.78;;;10.02;94.04
16777;BME280;8505;49.456;8.164;2023-04-28T01:56:56;99464.16;;;10.04;94.47
16777;BME280;8505;49.456;8.164;2023-04-28T01:59:25;99467.09;;;10.09;94.69
16777;BME280;8505;49.456;8.164;2023-04-28T02:01:53;99457.19;;;10.11;94.58
16777;BME280;8505;49.456;8.164;2023-04-28T02:04:20;99452.16;;;10.16;94.20
16777;BME280;8505;49.456;8.164;2023-04-28T02:06:48;99448.38;;;10.19;93.99
16777;BME280;8505;49.456;8.164;2023-04-28T02:09:17;99443.56;;;10.22;93.90
16777;BME280;8505;49.456;8.164;2023-04-28T02:11:44;99446.66;;;10.26;93.82
16777;BME280;8505;49.456;8.164;2023-04-28T02:14:12;99455.13;;;10.21;93.92
16777;BME280;8505;49.456;8.164;2023-04-28T02:16:41;99457.44;;;10.24;94.21
16777;BME280;8505;49.456;8.164;2023-04-28T02:19:09;99460.44;;;10.13;94.38
16777;BME280;8505;49.456;8.164;2023-04-28T02:21:37;99450.06;;;10.11;94.91
16777;BME280;8505;49.456;8.164;2023-04-28T02:24:06;99456.81;;;10.14;94.30
16777;BME280;8505;49.456;8.164;2023-04-28T02:26:34;99465.75;;;10.13;94.27
16777;BME280;8505;49.456;8.164;2023-04-28T02:29:01;99461.09;;;10.23;94.32
16777;BME280;8505;49.456;8.164;2023-04-28T02:31:30;99453.72;;;10.33;93.90
16777;BME280;8505;49.456;8.164;2023-04-28T02:33:59;99450.78;;;10.28;93.45
16777;BME280;8505;49.456;8.164;2023-04-28T02:36:28;99451.97;;;10.26;93.71
16777;BME280;8505;49.456;8.164;2023-04-28T02:38:55;99447.78;;;10.31;94.00
16777;BME280;8505;49.456;8.164;2023-04-28T02:41:23;99441.56;;;10.24;93.83
16777;BME280;8505;49.456;8.164;2023-04-28T02:43:51;99442.03;;;10.28;94.06
16777;BME280;8505;49.456;8.164;2023-04-28T02:46:19;99439.56;;;10.26;93.67
16777;BME280;8505;49.456;8.164;2023-04-28T02:48:46;99435.91;;;10.27;94.04
16777;BME280;8505;49.456;8.164;2023-04-28T02:51:16;99425.69;;;10.24;94.19
16777;BME280;8505;49.456;8.164;2023-04-28T02:53:43;99419.56;;;10.24;94.59
16777;BME280;8505;49.456;8.164;2023-04-28T02:56:12;99423.38;;;10.21;94.81
16777;BME280;8505;49.456;8.164;2023-04-28T02:58:39;99421.13;;;10.18;94.74
16777;BME280;8505;49.456;8.164;2023-04-28T03:01:07;99427.19;;;10.19;94.54
16777;BME280;8505;49.456;8.164;2023-04-28T03:03:35;99416.44;;;10.20;94.45
16777;BME280;8505;49.456;8.164;2023-04-28T03:06:03;99407.34;;;10.23;94.14
16777;BME280;8505;49.456;8.164;2023-04-28T03:08:33;99398.44;;;10.38;93.46
16777;BME280;8505;49.456;8.164;2023-04-28T03:11:01;99399.09;;;10.40;92.81
16777;BME280;8505;49.456;8.164;2023-04-28T03:13:29;99394.84;;;10.31;93.29
16777;BME280;8505;49.456;8.164;2023-04-28T03:15:57;99388.72;;;10.31;93.61
16777;BME280;8505;49.456;8.164;2023-04-28T03:18:24;99379.50;;;10.27;93.75
16777;BME280;8505;49.456;8.164;2023-04-28T03:20:52;99386.47;;;10.28;93.94
16777;BME280;8505;49.456;8.164;2023-04-28T03:23:20;99392.84;;;10.33;94.21
16777;BME280;8505;49.456;8.164;2023-04-28T03:25:49;99387.22;;;10.36;93.74
16777;BME280;8505;49.456;8.164;2023-04-28T03:28:16;99390.75;;;10.29;93.83
16777;BME280;8505;49.456;8.164;2023-04-28T03:30:44;99384.91;;;10.33;94.17
16777;BME280;8505;49.456;8.164;2023-04-28T03:33:12;99381.38;;;10.41;93.50
16777;BME280;8505;49.456;8.164;2023-04-28T03:35:40;99375.19;;;10.48;93.44
16777;BME280;8505;49.456;8.164;2023-04-28T03:38:07;99377.19;;;10.46;93.33
16777;BME280;8505;49.456;8.164;2023-04-28T03:40:35;99388.13;;;10.43;93.53
16777;BME280;8505;49.456;8.164;2023-04-28T03:43:04;99388.88;;;10.52;92.97
16777;BME280;8505;49.456;8.164;2023-04-28T03:45:33;99397.09;;;10.42;92.84
16777;BME280;8505;49.456;8.164;2023-04-28T03:48:01;99383.53;;;10.37;93.60
16777;BME280;8505;49.456;8.164;2023-04-28T03:50:28;99374.97;;;10.35;93.06
16777;BME280;8505;49.456;8.164;2023-04-28T03:52:56;99369.22;;;10.32;93.28
16777;BME280;8505;49.456;8.164;2023-04-28T03:55:24;99363.59;;;10.49;92.82
16777;BME280;8505;49.456;8.164;2023-04-28T03:57:52;99359.22;;;10.42;93.21
16777;BME280;8505;49.456;8.164;2023-04-28T04:00:21;99349.78;;;10.39;93.49
16777;BME280;8505;49.456;8.164;2023-04-28T04:02:49;99359.94;;;10.36;93.38
16777;BME280;8505;49.456;8.164;2023-04-28T04:05:17;99357.84;;;10.46;93.28
16777;BME280;8505;49.456;8.164;2023-04-28T04:07:44;99359.59;;;10.53;93.52
16777;BME280;8505;49.456;8.164;2023-04-28T04:10:12;99353.47;;;10.68;93.25
16777;BME280;8505;49.456;8.164;2023-04-28T04:12:40;99357.41;;;10.86;91.57
16777;BME280;8505;49.456;8.164;2023-04-28T04:15:08;99363.00;;;10.77;91.16
16777;BME280;8505;49.456;8.164;2023-04-28T04:17:37;99355.59;;;10.87;91.17
16777;BME280;8505;49.456;8.164;2023-04-28T04:20:06;99346.38;;;10.83;90.91
16777;BME280;8505;49.456;8.164;2023-04-28T04:22:34;99348.66;;;10.86;91.40
16777;BME280;8505;49.456;8.164;2023-04-28T04:25:02;99351.13;;;11.02;91.89
16777;BME280;8505;49.456;8.164;2023-04-28T04:27:30;99354.47;;;11.25;90.96
16777;BME280;8505;49.456;8.164;2023-04-28T04:29:58;99346.69;;;11.39;89.67
16777;BME280;8505;49.456;8.164;2023-04-28T04:32:26;99347.69;;;11.38;89.42
16777;BME280;8505;49.456;8.164;2023-04-28T04:34:55;99344.13;;;11.30;89.56
16777;BME280;8505;49.456;8.164;2023-04-28T04:37:22;99344.50;;;11.27;89.25
16777;BME280;8505;49.456;8.164;2023-04-28T04:39:50;99347.00;;;11.29;89.76
16777;BME280;8505;49.456;8.164;2023-04-28T04:42:18;99344.34;;;11.14;89.87
16777;BME280;8505;49.456;8.164;2023-04-28T04:44:51;99351.72;;;11.19;90.35
16777;BME280;8505;49.456;8.164;2023-04-28T04:47:19;99341.03;;;11.12;90.86
16777;BME280;8505;49.456;8.164;2023-04-28T04:49:47;99340.44;;;11.10;90.92
16777;BME280;8505;49.456;8.164;2023-04-28T04:52:17;99346.25;;;11.06;91.26
16777;BME280;8505;49.456;8.164;2023-04-28T04:54:45;99336.13;;;11.09;91.26
16777;BME280;8505;49.456;8.164;2023-04-28T04:57:12;99333.22;;;11.04;91.91
16777;BME280;8505;49.456;8.164;2023-04-28T04:59:40;99338.13;;;11.07;92.06
16777;BME280;8505;49.456;8.164;2023-04-28T05:02:08;99347.09;;;11.06;92.06
16777;BME280;8505;49.456;8.164;2023-04-28T05:04:36;99349.56;;;11.08;92.30
16777;BME280;8505;49.456;8.164;2023-04-28T05:07:04;99349.94;;;11.05;91.94
16777;BME280;8505;49.456;8.164;2023-04-28T05:09:33;99354.84;;;11.08;92.25
16777;BME280;8505;49.456;8.164;2023-04-28T05:12:01;99352.03;;;11.09;92.32
16777;BME280;8505;49.456;8.164;2023-04-28T05:14:29;99355.25;;;11.05;92.55
16777;BME280;8505;49.456;8.164;2023-04-28T05:16:57;99356.41;;;11.02;92.61
16777;BME280;8505;49.456;8.164;2023-04-28T05:19:24;99342.06;;;11.11;92.38
16777;BME280;8505;49.456;8.164;2023-04-28T05:21:52;99339.78;;;11.08;92.16
16777;BME280;8505;49.456;8.164;2023-04-28T05:24:20;99340.13;;;11.05;92.73
16777;BME280;8505;49.456;8.164;2023-04-28T05:26:50;99332.66;;;11.09;92.53
16777;BME280;8505;49.456;8.164;2023-04-28T05:29:19;99332.47;;;11.10;92.45
16777;BME280;8505;49.456;8.164;2023-04-28T05:31:47;99326.16;;;11.11;92.63
16777;BME280;8505;49.456;8.164;2023-04-28T05:34:15;99327.19;;;11.10;92.54
16777;BME280;8505;49.456;8.164;2023-04-28T05:36:43;99330.44;;;11.12;92.76
16777;BME280;8505;49.456;8.164;2023-04-28T05:39:14;99329.63;;;11.26;92.31
16777;BME280;8505;49.456;8.164;2023-04-28T05:41:42;99325.78;;;11.29;91.33
16777;BME280;8505;49.456;8.164;2023-04-28T05:44:11;99336.00;;;11.32;92.47
16777;BME280;8505;49.456;8.164;2023-04-28T05:46:39;99339.06;;;11.50;90.72
16777;BME280;8505;49.456;8.164;2023-04-28T05:49:09;99332.84;;;11.43;90.84
16777;BME280;8505;49.456;8.164;2023-04-28T05:51:36;99329.19;;;11.44;91.22
16777;BME280;8505;49.456;8.164;2023-04-28T05:54:05;99336.88;;;11.54;91.01
16777;BME280;8505;49.456;8.164;2023-04-28T05:56:32;99349.59;;;11.44;90.95
16777;BME280;8505;49.456;8.164;2023-04-28T05:59:00;99361.31;;;11.34;91.74
16777;BME280;8505;49.456;8.164;2023-04-28T06:01:31;99369.63;;;11.46;92.07
16777;BME280;8505;49.456;8.164;2023-04-28T06:03:59;99372.94;;;11.69;90.39
16777;BME280;8505;49.456;8.164;2023-04-28T06:06:27;99344.44;;;11.57;90.66
16777;BME280;8505;49.456;8.164;2023-04-28T06:08:55;99341.69;;;11.65;90.85
16777;BME280;8505;49.456;8.164;2023-04-28T06:11:22;99347.53;;;11.75;90.93
16777;BME280;8505;49.456;8.164;2023-04-28T06:13:50;99348.09;;;11.56;91.07
16777;BME280;8505;49.456;8.164;2023-04-28T06:16:18;99344.50;;;11.63;91.77
16777;BME280;8505;49.456;8.164;2023-04-28T06:18:48;99344.50;;;11.63;90.55
16777;BME280;8505;49.456;8.164;2023-04-28T06:21:16;99344.50;;;11.63;91.92
16777;BME280;8505;49.456;8.164;2023-04-28T06:23:44;99335.34;;;11.45;91.65
16777;BME280;8505;49.456;8.164;2023-04-28T06:26:11;99322.59;;;11.91;91.17
16777;BME280;8505;49.456;8.164;2023-04-28T06:28:42;99329.47;;;12.06;90.04
16777;BME280;8505;49.456;8.164;2023-04-28T06:31:10;99339.69;;;11.88;90.15
16777;BME280;8505;49.456;8.164;2023-04-28T06:33:38;99344.25;;;11.94;90.45
16777;BME280;8505;49.456;8.164;2023-04-28T06:36:08;99337.94;;;11.95;90.50
16777;BME280;8505;49.456;8.164;2023-04-28T06:38:39;99335.78;;;11.84;91.14
16777;BME280;8505;49.456;8.164;2023-04-28T06:41:08;99335.47;;;11.94;90.17
16777;BME280;8505;49.456;8.164;2023-04-28T06:43:37;99348.78;;;12.00;90.01
16777;BME280;8505;49.456;8.164;2023-04-28T06:46:05;99360.06;;;12.02;90.19
16777;BME280;8505;49.456;8.164;2023-04-28T06:48:32;99354.84;;;11.94;90.50
16777;BME280;8505;49.456;8.164;2023-04-28T06:51:00;99347.53;;;11.96;90.38
16777;BME280;8505;49.456;8.164;2023-04-28T06:53:30;99339.94;;;11.72;90.22
16777;BME280;8505;49.456;8.164;2023-04-28T06:55:57;99344.38;;;11.50;92.93
16777;BME280;8505;49.456;8.164;2023-04-28T06:58:25;99333.69;;;11.44;93.80
16777;BME280;8505;49.456;8.164;2023-04-28T07:00:53;99336.91;;;11.39;94.73
16777;BME280;8505;49.456;8.164;2023-04-28T07:03:21;99326.63;;;11.51;94.97
16777;BME280;8505;49.456;8.164;2023-04-28T07:05:49;99326.94;;;11.98;93.41
16777;BME280;8505;49.456;8.164;2023-04-28T07:08:16;99335.66;;;12.41;89.88
16777;BME280;8505;49.456;8.164;2023-04-28T07:10:46;99345.19;;;12.57;89.34
16777;BME280;8505;49.456;8.164;2023-04-28T07:13:13;99342.22;;;12.73;89.35
16777;BME280;8505;49.456;8.164;2023-04-28T07:15:41;99336.94;;;12.80;87.34
16777;BME280;8505;49.456;8.164;2023-04-28T07:18:09;99326.88;;;13.10;88.45
16777;BME280;8505;49.456;8.164;2023-04-28T07:20:37;99318.78;;;12.83;87.90
16777;BME280;8505;49.456;8.164;2023-04-28T07:23:04;99326.13;;;13.16;88.28
16777;BME280;8505;49.456;8.164;2023-04-28T07:25:32;99337.31;;;13.11;88.12
16777;BME280;8505;49.456;8.164;2023-04-28T07:28:03;99330.63;;;12.81;88.89
16777;BME280;8505;49.456;8.164;2023-04-28T07:30:31;99326.13;;;13.16;87.74
16777;BME280;8505;49.456;8.164;2023-04-28T07:33:00;99320.84;;;12.88;87.91
16777;BME280;8505;49.456;8.164;2023-04-28T07:35:28;99325.81;;;13.04;89.13
16777;BME280;8505;49.456;8.164;2023-04-28T07:37:55;99325.75;;;12.91;89.78
16777;BME280;8505;49.456;8.164;2023-04-28T07:40:23;99328.06;;;13.01;88.52
16777;BME280;8505;49.456;8.164;2023-04-28T07:42:51;99324.97;;;13.31;87.61
16777;BME280;8505;49.456;8.164;2023-04-28T07:45:21;99315.78;;;13.47;87.31
16777;BME280;8505;49.456;8.164;2023-04-28T07:47:48;99308.19;;;13.31;88.57
16777;BME280;8505;49.456;8.164;2023-04-28T07:50:16;99312.13;;;13.55;87.65
16777;BME280;8505;49.456;8.164;2023-04-28T07:52:44;99306.22;;;13.59;87.83
16777;BME280;8505;49.456;8.164;2023-04-28T07:55:12;99300.88;;;13.53;89.45
16777;BME280;8505;49.456;8.164;2023-04-28T07:57:39;99305.31;;;13.26;91.06
16777;BME280;8505;49.456;8.164;2023-04-28T08:00:08;99292.31;;;13.10;91.89
16777;BME280;8505;49.456;8.164;2023-04-28T08:02:38;99283.88;;;13.47;90.56
16777;BME280;8505;49.456;8.164;2023-04-28T08:05:06;99289.88;;;14.02;87.49
16777;BME280;8505;49.456;8.164;2023-04-28T08:07:35;99295.63;;;14.25;87.07
16777;BME280;8505;49.456;8.164;2023-04-28T08:10:04;99298.69;;;14.22;87.58
16777;BME280;8505;49.456;8.164;2023-04-28T08:12:32;99288.88;;;14.03;87.26
16777;BME280;8505;49.456;8.164;2023-04-28T08:14:59;99298.69;;;13.96;87.94
16777;BME280;8505;49.456;8.164;2023-04-28T08:17:28;99311.59;;;13.99;88.20
16777;BME280;8505;49.456;8.164;2023-04-28T08:19:57;99320.41;;;14.06;87.92
16777;BME280;8505;49.456;8.164;2023-04-28T08:22:25;99317.97;;;14.17;88.14
16777;BME280;8505;49.456;8.164;2023-04-28T08:24:53;99327.59;;;14.18;88.03
16777;BME280;8505;49.456;8.164;2023-04-28T08:27:21;99317.75;;;14.45;88.39
16777;BME280;8505;49.456;8.164;2023-04-28T08:29:51;99320.22;;;14.40;87.93
16777;BME280;8505;49.456;8.164;2023-04-28T08:32:19;99315.28;;;14.50;88.60
16777;BME280;8505;49.456;8.164;2023-04-28T08:34:46;99320.66;;;14.44;87.72
16777;BME280;8505;49.456;8.164;2023-04-28T08:37:16;99318.38;;;14.41;88.44
16777;BME280;8505;49.456;8.164;2023-04-28T08:39:43;99329.84;;;14.28;88.48
16777;BME280;8505;49.456;8.164;2023-04-28T08:42:12;99322.06;;;14.07;89.91
16777;BME280;8505;49.456;8.164;2023-04-28T08:44:40;99326.78;;;14.18;88.89
16777;BME280;8505;49.456;8.164;2023-04-28T08:47:10;99323.88;;;14.19;89.26
16777;BME280;8505;49.456;8.164;2023-04-28T08:49:39;99325.13;;;14.24;89.09
16777;BME280;8505;49.456;8.164;2023-04-28T08:52:10;99321.84;;;14.28;89.47
16777;BME280;8505;49.456;8.164;2023-04-28T08:54:39;99327.00;;;14.49;88.89
16777;BME280;8505;49.456;8.164;2023-04-28T08:57:08;99329.03;;;14.54;88.66
16777;BME280;8505;49.456;8.164;2023-04-28T08:59:40;99325.34;;;14.62;88.91
16777;BME280;8505;49.456;8.164;2023-04-28T09:02:08;99335.38;;;14.60;89.07
16777;BME280;8505;49.456;8.164;2023-04-28T09:04:36;99326.34;;;14.74;88.55
16777;BME280;8505;49.456;8.164;2023-04-28T09:07:09;99331.84;;;14.92;88.36
16777;BME280;8505;49.456;8.164;2023-04-28T09:09:39;99336.31;;;15.05;87.30
16777;BME280;8505;49.456;8.164;2023-04-28T09:12:07;99342.19;;;15.20;86.60
16777;BME280;8505;49.456;8.164;2023-04-28T09:14:36;99332.34;;;15.20;86.87
16777;BME280;8505;49.456;8.164;2023-04-28T09:17:09;99338.66;;;15.32;86.72
16777;BME280;8505;49.456;8.164;2023-04-28T09:19:38;99334.91;;;15.47;85.09
16777;BME280;8505;49.456;8.164;2023-04-28T09:22:08;99344.94;;;15.58;85.56
16777;BME280;8505;49.456;8.164;2023-04-28T09:24:53;99343.72;;;15.60;86.30
16777;BME280;8505;49.456;8.164;2023-04-28T09:27:26;99336.72;;;15.59;87.15
16777;BME280;8505;49.456;8.164;2023-04-28T09:29:54;99332.66;;;15.88;84.05
16777;BME280;8505;49.456;8.164;2023-04-28T09:32:22;99338.38;;;15.60;84.76
16777;BME280;8505;49.456;8.164;2023-04-28T09:34:54;99346.16;;;15.62;84.02
16777;BME280;8505;49.456;8.164;2023-04-28T09:37:23;99338.94;;;15.18;86.57
16777;BME280;8505;49.456;8.164;2023-04-28T09:39:54;99345.03;;;15.31;86.44
16777;BME280;8505;49.456;8.164;2023-04-28T09:42:32;99343.47;;;15.17;86.92
16777;BME280;8505;49.456;8.164;2023-04-28T09:45:01;99339.16;;;15.10;87.75
16777;BME280;8505;49.456;8.164;2023-04-28T09:47:30;99341.78;;;15.23;87.20
16777;BME280;8505;49.456;8.164;2023-04-28T09:50:01;99351.28;;;15.06;88.09
16777;BME280;8505;49.456;8.164;2023-04-28T09:52:29;99346.38;;;14.96;88.04
16777;BME280;8505;49.456;8.164;2023-04-28T09:55:00;99344.53;;;15.03;87.63
16777;BME280;8505;49.456;8.164;2023-04-28T09:57:30;99338.75;;;15.06;88.26
16777;BME280;8505;49.456;8.164;2023-04-28T10:00:00;99342.25;;;15.00;88.53
16777;BME280;8505;49.456;8.164;2023-04-28T10:02:28;99351.88;;;15.14;88.05
16777;BME280;8505;49.456;8.164;2023-04-28T10:04:59;99352.28;;;15.18;88.03
16777;BME280;8505;49.456;8.164;2023-04-28T10:07:28;99351.22;;;15.25;87.98
16777;BME280;8505;49.456;8.164;2023-04-28T10:09:56;99345.47;;;15.28;87.54
16777;BME280;8505;49.456;8.164;2023-04-28T10:12:26;99351.34;;;15.37;87.20
16777;BME280;8505;49.456;8.164;2023-04-28T10:14:54;99363.84;;;15.50;86.64
16777;BME280;8505;49.456;8.164;2023-04-28T10:17:22;99356.88;;;15.49;86.21
16777;BME280;8505;49.456;8.164;2023-04-28T10:19:53;99361.50;;;15.73;86.66
16777;BME280;8505;49.456;8.164;2023-04-28T10:22:37;99362.75;;;15.70;86.69
16777;BME280;8505;49.456;8.164;2023-04-28T10:25:25;99359.88;;;15.72;85.96
16777;BME280;8505;49.456;8.164;2023-04-28T10:27:55;99350.16;;;15.84;86.16
16777;BME280;8505;49.456;8.164;2023-04-28T10:30:25;99348.25;;;15.91;85.68
16777;BME280;8505;49.456;8.164;2023-04-28T10:33:22;99349.44;;;15.95;85.36
16777;BME280;8505;49.456;8.164;2023-04-28T10:35:52;99345.59;;;15.91;85.62
16777;BME280;8505;49.456;8.164;2023-04-28T10:38:20;99347.16;;;15.99;86.39
16777;BME280;8505;49.456;8.164;2023-04-28T10:40:49;99345.22;;;16.37;84.53
16777;BME280;8505;49.456;8.164;2023-04-28T10:43:35;99334.44;;;16.75;84.55
16777;BME280;8505;49.456;8.164;2023-04-28T10:46:08;99342.41;;;17.00;83.95
16777;BME280;8505;49.456;8.164;2023-04-28T10:49:04;99345.22;;;16.87;82.16
16777;BME280;8505;49.456;8.164;2023-04-28T10:51:33;99339.56;;;17.13;82.68
16777;BME280;8505;49.456;8.164;2023-04-28T10:54:17;99340.81;;;16.92;82.91
16777;BME280;8505;49.456;8.164;2023-04-28T10:57:14;99338.06;;;16.81;83.49
16777;BME280;8505;49.456;8.164;2023-04-28T10:59:44;99337.16;;;16.69;83.40
16777;BME280;8505;49.456;8.164;2023-04-28T11:02:34;99334.25;;;15.96;86.23
16777;BME280;8505;49.456;8.164;2023-04-28T11:05:10;99326.94;;;16.66;84.24
16777;BME280;8505;49.456;8.164;2023-04-28T11:07:38;99324.03;;;16.85;83.13
16777;BME280;8505;49.456;8.164;2023-04-28T11:10:07;99317.72;;;16.98;82.81
16777;BME280;8505;49.456;8.164;2023-04-28T11:12:35;99323.19;;;16.67;84.76
16777;BME280;8505;49.456;8.164;2023-04-28T11:15:12;99327.44;;;16.49;85.54
16777;BME280;8505;49.456;8.164;2023-04-28T11:17:40;99327.91;;;16.89;84.11
16777;BME280;8505;49.456;8.164;2023-04-28T11:20:11;99334.13;;;16.65;85.37
16777;BME280;8505;49.456;8.164;2023-04-28T11:22:40;99347.72;;;16.64;85.42
16777;BME280;8505;49.456;8.164;2023-04-28T11:25:08;99320.84;;;16.52;86.14
16777;BME280;8505;49.456;8.164;2023-04-28T11:27:36;99325.44;;;16.70;85.41
16777;BME280;8505;49.456;8.164;2023-04-28T11:30:18;99328.81;;;16.58;86.34
16777;BME280;8505;49.456;8.164;2023-04-28T11:32:48;99334.16;;;16.34;87.21
16777;BME280;8505;49.456;8.164;2023-04-28T11:35:17;99336.44;;;16.05;88.93
16777;BME280;8505;49.456;8.164;2023-04-28T11:37:44;99335.91;;;16.22;88.77
16777;BME280;8505;49.456;8.164;2023-04-28T11:40:13;99335.53;;;15.49;91.46
16777;BME280;8505;49.456;8.164;2023-04-28T11:42:46;99323.69;;;16.07;89.48
16777;BME280;8505;49.456;8.164;2023-04-28T11:45:15;99321.69;;;16.28;88.29
16777;BME280;8505;49.456;8.164;2023-04-28T11:47:43;99325.56;;;16.00;90.36
16777;BME280;8505;49.456;8.164;2023-04-28T11:50:11;99327.75;;;15.85;90.50
16777;BME280;8505;49.456;8.164;2023-04-28T11:52:50;99339.13;;;16.30;88.52
16777;BME280;8505;49.456;8.164;2023-04-28T11:55:19;99340.03;;;15.86;89.60
16777;BME280;8505;49.456;8.164;2023-04-28T11:57:47;99342.50;;;15.88;91.14
16777;BME280;8505;49.456;8.164;2023-04-28T12:00:17;99346.69;;;16.08;89.90
16777;BME280;8505;49.456;8.164;2023-04-28T12:02:48;99345.72;;;16.28;89.25
16777;BME280;8505;49.456;8.164;2023-04-28T12:05:16;99344.72;;;15.66;91.97
16777;BME280;8505;49.456;8.164;2023-04-28T12:07:46;99341.88;;;15.92;91.92
16777;BME280;8505;49.456;8.164;2023-04-28T12:10:14;99342.59;;;16.31;89.49
16777;BME280;8505;49.456;8.164;2023-04-28T12:12:43;99331.91;;;16.55;87.65
16777;BME280;8505;49.456;8.164;2023-04-28T12:15:20;99335.09;;;16.71;88.42
16777;BME280;8505;49.456;8.164;2023-04-28T12:17:50;99333.00;;;16.48;89.41
16777;BME280;8505;49.456;8.164;2023-04-28T12:20:34;99326.09;;;16.40;88.50
16777;BME280;8505;49.456;8.164;2023-04-28T12:23:03;99330.13;;;16.92;87.69
16777;BME280;8505;49.456;8.164;2023-04-28T12:25:31;99320.31;;;16.86;88.03
16777;BME280;8505;49.456;8.164;2023-04-28T12:28:01;99327.59;;;17.16;86.58
16777;BME280;8505;49.456;8.164;2023-04-28T12:30:33;99328.47;;;16.73;88.68
16777;BME280;8505;49.456;8.164;2023-04-28T12:33:01;99334.06;;;16.47;90.22
16777;BME280;8505;49.456;8.164;2023-04-28T12:35:29;99332.66;;;16.87;88.71
16777;BME280;8505;49.456;8.164;2023-04-28T12:37:58;99336.88;;;16.77;89.77
16777;BME280;8505;49.456;8.164;2023-04-28T12:40:26;99335.31;;;16.69;89.80
16777;BME280;8505;49.456;8.164;2023-04-28T12:42:54;99335.19;;;17.19;88.31
16777;BME280;8505;49.456;8.164;2023-04-28T12:45:22;99334.78;;;17.70;86.47
16777;BME280;8505;49.456;8.164;2023-04-28T12:47:51;99333.56;;;17.66;86.13
16777;BME280;8505;49.456;8.164;2023-04-28T12:50:19;99336.03;;;17.67;87.47
16777;BME280;8505;49.456;8.164;2023-04-28T12:52:47;99326.41;;;17.78;88.44
16777;BME280;8505;49.456;8.164;2023-04-28T12:55:15;99318.88;;;18.51;86.43
16777;BME280;8505;49.456;8.164;2023-04-28T12:57:42;99327.84;;;17.92;88.30
16777;BME280;8505;49.456;8.164;2023-04-28T13:00:11;99333.88;;;18.41;86.09
16777;BME280;8505;49.456;8.164;2023-04-28T13:02:41;99322.09;;;18.18;86.34
16777;BME280;8505;49.456;8.164;2023-04-28T13:05:11;99317.78;;;18.41;85.95
16777;BME280;8505;49.456;8.164;2023-04-28T13:07:39;99322.91;;;18.19;86.42
16777;BME280;8505;49.456;8.164;2023-04-28T13:10:08;99320.66;;;18.04;86.95
16777;BME280;8505;49.456;8.164;2023-04-28T13:12:36;99322.88;;;17.96;87.03
16777;BME280;8505;49.456;8.164;2023-04-28T13:15:04;99336.53;;;18.17;86.41
16777;BME280;8505;49.456;8.164;2023-04-28T13:17:32;99322.59;;;17.86;88.10
16777;BME280;8505;49.456;8.164;2023-04-28T13:20:01;99314.28;;;18.17;87.95